Time;durP1;ratioP1;P1;durP2;ratioP2;P2;SDS_P1;SDS_P2;PMS_P1;PMS_P2;Temp;Humidity;BMP_temperature;BMP_pressure;BME280_temperature;BME280_humidity;BME280_pressure;Samples;Min_cycle;Max_cycle;Signal;HPM_P1;HPM_P2
2022/03/01 00:00:11;;;;;;;14.68;9.25;;;1.70;99.90;;;;;;5068161;28;20045;-43
2022/03/01 00:02:40;;;;;;;14.40;8.95;;;1.70;99.90;;;;;;5085212;28;20349;-43
2022/03/01 00:05:06;;;;;;;18.00;10.32;;;1.70;99.90;;;;;;5096406;27;20044;-43
2022/03/01 00:07:32;;;;;;;18.67;10.20;;;1.70;99.90;;;;;;5087813;28;20028;-43
2022/03/01 00:09:58;;;;;;;15.77;9.38;;;1.60;99.90;;;;;;5098963;28;20028;-43
2022/03/01 00:12:24;;;;;;;19.10;9.43;;;1.60;99.90;;;;;;5068955;28;20478;-43
2022/03/01 00:14:50;;;;;;;17.50;9.35;;;1.60;99.90;;;;;;5085335;28;20148;-43
2022/03/01 00:17:16;;;;;;;16.73;9.45;;;1.60;99.90;;;;;;5086902;28;20048;-42
2022/03/01 00:19:42;;;;;;;19.27;9.40;;;1.60;99.90;;;;;;5100358;27;20457;-42
2022/03/01 00:22:08;;;;;;;15.00;9.10;;;1.60;99.90;;;;;;5073807;28;20377;-43
2022/03/01 00:24:33;;;;;;;14.40;8.82;;;1.50;99.90;;;;;;5095767;28;20426;-42
2022/03/01 00:26:59;;;;;;;15.23;9.25;;;1.50;99.90;;;;;;5062679;28;20135;-42
2022/03/01 00:29:25;;;;;;;17.25;8.95;;;1.50;99.90;;;;;;5086720;28;20028;-43
2022/03/01 00:31:51;;;;;;;17.15;10.00;;;1.50;99.90;;;;;;5093437;28;20043;-43
2022/03/01 00:34:18;;;;;;;17.42;10.23;;;1.40;99.90;;;;;;5085813;28;20401;-43
2022/03/01 00:36:47;;;;;;;17.65;9.60;;;1.40;99.90;;;;;;5085595;28;20028;-43
2022/03/01 00:39:14;;;;;;;15.68;8.45;;;1.30;99.90;;;;;;5087234;28;20028;-43
2022/03/01 00:41:40;;;;;;;14.82;9.48;;;1.30;99.90;;;;;;5083006;28;20136;-42
2022/03/01 00:44:06;;;;;;;16.63;10.65;;;1.30;99.90;;;;;;5049304;28;20566;-43
2022/03/01 00:46:32;;;;;;;15.85;9.65;;;1.20;99.90;;;;;;5066067;28;20113;-42
2022/03/01 00:48:59;;;;;;;17.52;10.27;;;1.20;99.90;;;;;;5068350;28;20515;-43
2022/03/01 00:51:26;;;;;;;17.08;10.85;;;1.20;99.90;;;;;;5083168;28;20048;-42
2022/03/01 00:53:52;;;;;;;16.58;9.55;;;1.20;99.90;;;;;;5069406;28;20494;-42
2022/03/01 00:56:18;;;;;;;15.75;9.23;;;1.10;99.90;;;;;;5066894;28;20036;-42
2022/03/01 00:58:44;;;;;;;14.15;9.35;;;1.10;99.90;;;;;;5101350;28;20079;-43
2022/03/01 01:01:10;;;;;;;17.48;9.43;;;1.00;99.90;;;;;;5083196;28;20216;-42
2022/03/01 01:03:37;;;;;;;15.97;9.33;;;1.00;99.90;;;;;;5081855;28;20043;-42
2022/03/01 01:06:04;;;;;;;15.23;8.98;;;1.00;99.90;;;;;;5086878;28;20044;-43
2022/03/01 01:08:29;;;;;;;17.70;10.27;;;0.90;99.90;;;;;;5068177;28;20047;-43
2022/03/01 01:10:55;;;;;;;16.42;9.85;;;0.90;99.90;;;;;;5067556;28;20687;-42
2022/03/01 01:13:22;;;;;;;15.32;9.40;;;0.90;99.90;;;;;;5082748;28;20067;-42
2022/03/01 01:15:48;;;;;;;14.68;9.23;;;0.90;99.90;;;;;;5087582;28;20040;-42
2022/03/01 01:18:14;;;;;;;14.18;8.80;;;0.90;99.90;;;;;;5084238;28;20036;-42
2022/03/01 01:20:41;;;;;;;18.52;9.30;;;0.80;99.90;;;;;;5068606;28;20036;-43
2022/03/01 01:23:07;;;;;;;17.27;9.65;;;0.80;99.90;;;;;;5065895;28;20082;-42
2022/03/01 01:25:34;;;;;;;16.00;9.48;;;0.80;99.90;;;;;;5068924;28;20453;-42
2022/03/01 01:28:01;;;;;;;19.33;9.93;;;0.80;99.90;;;;;;5067741;28;20032;-43
2022/03/01 01:30:29;;;;;;;17.20;10.30;;;0.70;99.90;;;;;;5085612;28;20044;-43
2022/03/01 01:32:55;;;;;;;16.52;9.80;;;0.70;99.90;;;;;;5097608;28;20113;-41
2022/03/01 01:35:24;;;;;;;17.48;9.95;;;0.70;99.90;;;;;;5084385;28;20041;-43
2022/03/01 01:37:51;;;;;;;20.35;9.95;;;0.70;99.90;;;;;;5100210;28;20043;-43
2022/03/01 01:40:19;;;;;;;17.60;9.52;;;0.60;99.90;;;;;;5064676;28;20384;-43
2022/03/01 01:42:46;;;;;;;17.67;10.30;;;0.70;99.90;;;;;;5086789;28;20097;-43
2022/03/01 01:45:14;;;;;;;16.77;9.48;;;0.60;99.90;;;;;;5050867;28;20071;-43
2022/03/01 01:47:41;;;;;;;15.25;9.05;;;0.60;99.90;;;;;;5084783;28;20040;-42
2022/03/01 01:50:08;;;;;;;17.35;9.60;;;0.60;99.90;;;;;;5084290;28;20040;-42
2022/03/01 01:52:35;;;;;;;15.90;9.40;;;0.50;99.90;;;;;;5067910;28;20071;-42
2022/03/01 01:55:01;;;;;;;17.90;9.35;;;0.50;99.90;;;;;;5099935;28;20528;-43
2022/03/01 01:57:27;;;;;;;18.23;10.00;;;0.50;99.90;;;;;;5066439;28;20032;-43
2022/03/01 01:59:55;;;;;;;17.98;10.00;;;0.50;99.90;;;;;;5047485;28;20496;-43
2022/03/01 02:02:23;;;;;;;16.73;10.05;;;0.40;99.90;;;;;;5087465;28;20075;-43
2022/03/01 02:04:49;;;;;;;14.30;9.38;;;0.40;99.90;;;;;;5064866;28;20050;-43
2022/03/01 02:07:15;;;;;;;16.48;9.43;;;0.40;99.90;;;;;;5071961;28;20486;-43
2022/03/01 02:09:41;;;;;;;16.43;10.00;;;0.40;99.90;;;;;;5070191;28;20061;-43
2022/03/01 02:12:08;;;;;;;15.82;9.48;;;0.40;99.90;;;;;;5068332;28;21069;-43
2022/03/01 02:14:37;;;;;;;21.13;10.68;;;0.40;99.90;;;;;;5089629;28;20385;-42
2022/03/01 02:17:05;;;;;;;17.15;9.07;;;0.40;99.90;;;;;;5086075;28;20102;-42
2022/03/01 02:19:32;;;;;;;18.05;9.68;;;0.40;99.90;;;;;;5079777;28;20404;-42
2022/03/01 02:21:58;;;;;;;16.13;9.43;;;0.40;99.90;;;;;;5085035;28;20059;-43
2022/03/01 02:24:29;;;;;;;16.83;9.75;;;0.50;99.90;;;;;;5089697;28;20047;-43
2022/03/01 02:27:01;;;;;;;16.83;9.23;;;0.50;99.90;;;;;;5071139;28;20082;-43
2022/03/01 02:29:28;;;;;;;14.40;8.68;;;0.50;99.90;;;;;;5054227;28;20051;-43
2022/03/01 02:31:56;;;;;;;20.55;10.40;;;0.60;99.90;;;;;;5086408;28;20036;-42
2022/03/01 02:34:24;;;;;;;16.98;10.30;;;0.60;99.90;;;;;;5086114;28;20039;-42
2022/03/01 02:36:50;;;;;;;14.25;9.07;;;0.60;99.90;;;;;;5062545;28;20060;-43
2022/03/01 02:39:16;;;;;;;15.75;9.50;;;0.60;99.90;;;;;;5089210;28;20449;-42
2022/03/01 02:41:44;;;;;;;18.17;10.27;;;0.70;99.90;;;;;;5089396;28;20115;-43
2022/03/01 02:44:11;;;;;;;18.05;10.18;;;0.70;99.90;;;;;;5088061;28;20123;-43
2022/03/01 02:46:37;;;;;;;18.90;10.70;;;0.70;99.90;;;;;;5089155;28;20051;-43
2022/03/01 02:49:04;;;;;;;18.55;9.68;;;0.70;99.90;;;;;;5100173;28;20487;-43
2022/03/01 02:51:30;;;;;;;17.27;9.18;;;0.70;99.90;;;;;;5089251;28;20102;-43
2022/03/01 02:53:56;;;;;;;16.23;9.77;;;0.70;99.90;;;;;;5067717;28;20115;-43
2022/03/01 02:56:22;;;;;;;17.00;10.32;;;0.60;99.90;;;;;;5069886;28;20123;-43
2022/03/01 02:58:48;;;;;;;17.65;9.60;;;0.60;99.90;;;;;;5071000;28;20040;-43
2022/03/01 03:01:14;;;;;;;19.05;10.40;;;0.60;99.90;;;;;;5064110;28;20517;-43
2022/03/01 03:03:40;;;;;;;16.55;9.57;;;0.60;99.90;;;;;;5066774;28;20036;-43
2022/03/01 03:06:06;;;;;;;16.58;10.05;;;0.60;99.90;;;;;;5067656;28;20076;-43
2022/03/01 03:08:33;;;;;;;19.10;9.75;;;0.60;99.90;;;;;;5093215;27;20033;-43
2022/03/01 03:10:59;;;;;;;19.05;9.52;;;0.60;99.90;;;;;;5054610;28;20701;-43
2022/03/01 03:13:25;;;;;;;16.33;10.32;;;0.50;99.90;;;;;;5067864;28;20075;-43
2022/03/01 03:15:52;;;;;;;18.42;9.88;;;0.50;99.90;;;;;;5063587;28;20119;-43
2022/03/01 03:18:37;;;;;;;17.17;9.90;;;0.50;99.90;;;;;;5067095;28;20048;-43
2022/03/01 03:21:04;;;;;;;20.08;9.60;;;0.50;99.90;;;;;;5063519;28;20564;-42
2022/03/01 03:23:31;;;;;;;16.00;10.10;;;0.50;99.90;;;;;;5066485;28;20068;-43
2022/03/01 03:25:56;;;;;;;20.17;10.70;;;0.50;99.90;;;;;;5066875;28;20510;-43
2022/03/01 03:28:23;;;;;;;18.38;10.73;;;0.50;99.90;;;;;;5043050;28;20064;-43
2022/03/01 03:30:49;;;;;;;18.23;9.23;;;0.50;99.90;;;;;;5066880;28;20657;-42
2022/03/01 03:33:15;;;;;;;17.08;9.68;;;0.50;99.90;;;;;;5066714;28;20132;-42
2022/03/01 03:35:41;;;;;;;17.50;10.05;;;0.50;99.90;;;;;;5026546;28;20040;-43
2022/03/01 03:38:08;;;;;;;16.70;9.95;;;0.50;99.90;;;;;;5064169;28;20776;-43
2022/03/01 03:40:34;;;;;;;19.25;10.00;;;0.50;99.90;;;;;;5080873;28;20108;-43
2022/03/01 03:42:59;;;;;;;17.75;10.18;;;0.50;99.90;;;;;;5063954;28;20036;-43
2022/03/01 03:45:25;;;;;;;18.77;10.27;;;0.50;99.90;;;;;;5066801;28;20509;-43
2022/03/01 03:47:51;;;;;;;16.95;10.30;;;0.50;99.90;;;;;;5061705;28;20055;-43
2022/03/01 03:50:17;;;;;;;17.52;9.65;;;0.60;99.90;;;;;;5032777;28;20113;-43
2022/03/01 03:52:43;;;;;;;18.00;9.65;;;0.60;99.90;;;;;;5048813;28;20033;-42
2022/03/01 03:55:10;;;;;;;19.58;10.65;;;0.60;99.90;;;;;;5066026;28;20388;-42
2022/03/01 03:57:37;;;;;;;19.23;10.70;;;0.60;99.90;;;;;;5049333;28;20042;-42
2022/03/01 04:00:06;;;;;;;17.35;10.98;;;0.70;99.90;;;;;;5063672;28;20559;-43
2022/03/01 04:02:32;;;;;;;19.58;10.93;;;0.70;99.90;;;;;;5083200;28;20461;-44
2022/03/01 04:04:58;;;;;;;18.65;10.68;;;0.80;99.90;;;;;;5082883;28;20052;-43
2022/03/01 04:07:24;;;;;;;19.00;10.82;;;0.80;99.90;;;;;;5068822;28;20055;-43
2022/03/01 04:09:51;;;;;;;21.02;10.85;;;0.80;99.90;;;;;;5087926;28;20044;-42
2022/03/01 04:12:18;;;;;;;19.52;10.55;;;0.90;99.90;;;;;;5069002;28;20036;-43
2022/03/01 04:14:44;;;;;;;18.75;10.57;;;0.90;99.90;;;;;;5099969;28;20089;-43
2022/03/01 04:17:10;;;;;;;22.08;10.80;;;0.90;99.90;;;;;;5069574;28;20048;-43
2022/03/01 04:19:36;;;;;;;19.35;11.30;;;0.90;99.90;;;;;;5084589;28;20382;-43
2022/03/01 04:22:03;;;;;;;20.42;11.43;;;0.90;99.90;;;;;;5069142;28;20260;-43
2022/03/01 04:24:28;;;;;;;18.05;10.45;;;0.90;99.90;;;;;;5067984;28;20036;-43
2022/03/01 04:26:54;;;;;;;19.75;10.60;;;0.90;99.90;;;;;;5035259;28;20066;-43
2022/03/01 04:29:20;;;;;;;22.42;10.90;;;0.90;99.90;;;;;;5095520;28;20377;-43
2022/03/01 04:31:47;;;;;;;19.00;11.02;;;0.90;99.90;;;;;;5084127;28;20041;-43
2022/03/01 04:34:13;;;;;;;18.33;9.93;;;0.90;99.90;;;;;;5082208;28;20063;-44
2022/03/01 04:36:38;;;;;;;20.52;10.85;;;0.80;99.90;;;;;;5080495;28;20051;-43
2022/03/01 04:39:05;;;;;;;17.58;9.98;;;0.80;99.90;;;;;;5069130;28;20335;-43
2022/03/01 04:41:31;;;;;;;17.67;11.00;;;0.80;99.90;;;;;;5067396;28;20040;-43
2022/03/01 04:43:58;;;;;;;16.98;9.82;;;0.80;99.90;;;;;;5100209;27;20036;-43
2022/03/01 04:46:24;;;;;;;18.87;10.30;;;0.80;99.90;;;;;;5068019;28;20039;-43
2022/03/01 04:48:50;;;;;;;21.45;11.18;;;0.80;99.90;;;;;;5056737;28;20048;-43
2022/03/01 04:51:35;;;;;;;21.67;11.98;;;0.70;99.90;;;;;;5083950;28;20398;-42
2022/03/01 04:54:01;;;;;;;17.60;10.55;;;0.80;99.90;;;;;;5084956;28;20131;-43
2022/03/01 04:56:27;;;;;;;18.02;9.93;;;0.70;99.90;;;;;;5087802;28;20230;-43
2022/03/01 04:58:52;;;;;;;18.73;11.48;;;0.80;99.90;;;;;;5084534;28;20126;-43
2022/03/01 05:01:18;;;;;;;15.65;9.73;;;0.80;99.90;;;;;;5052364;28;20401;-43
2022/03/01 05:03:45;;;;;;;16.10;9.35;;;0.80;99.90;;;;;;5084052;28;20520;-43
2022/03/01 05:06:11;;;;;;;17.35;10.32;;;0.80;99.90;;;;;;5065930;28;20576;-43
2022/03/01 05:08:37;;;;;;;17.33;10.88;;;0.80;99.90;;;;;;5081772;28;20028;-43
2022/03/01 05:11:03;;;;;;;17.48;10.32;;;0.80;99.90;;;;;;5051619;28;20394;-43
2022/03/01 05:13:29;;;;;;;17.52;10.48;;;0.80;99.90;;;;;;5084245;28;20039;-43
2022/03/01 05:15:56;;;;;;;16.70;10.52;;;0.80;99.90;;;;;;5085240;28;20036;-43
2022/03/01 05:18:22;;;;;;;17.67;10.77;;;0.80;99.90;;;;;;5064399;28;20024;-42
2022/03/01 05:20:48;;;;;;;17.25;10.45;;;0.90;99.90;;;;;;5076894;28;20396;-43
2022/03/01 05:23:15;;;;;;;17.85;10.05;;;0.90;99.90;;;;;;5083327;28;20062;-43
2022/03/01 05:25:41;;;;;;;18.83;10.98;;;0.90;99.90;;;;;;5062284;28;20167;-43
2022/03/01 05:28:07;;;;;;;18.73;10.73;;;0.80;99.90;;;;;;5067794;28;20055;-43
2022/03/01 05:30:33;;;;;;;18.67;10.80;;;0.80;99.90;;;;;;5075057;28;20055;-43
2022/03/01 05:32:59;;;;;;;20.75;11.13;;;0.80;99.90;;;;;;5067582;28;20511;-43
2022/03/01 05:35:27;;;;;;;17.88;10.40;;;0.80;99.90;;;;;;5050258;28;20036;-42
2022/03/01 05:37:55;;;;;;;19.77;10.98;;;0.80;99.90;;;;;;5070422;28;20044;-43
2022/03/01 05:40:22;;;;;;;;;;;0.90;99.90;;;;;;5088534;28;20058;-43
2022/03/01 05:42:48;;;;;;;18.05;10.85;;;0.90;99.90;;;;;;5056002;28;20428;-43
2022/03/01 05:45:15;;;;;;;20.02;10.80;;;0.90;99.90;;;;;;5100275;28;20027;-43
2022/03/01 05:47:43;;;;;;;19.15;10.63;;;0.90;99.90;;;;;;5105198;28;20058;-43
2022/03/01 05:50:10;;;;;;;17.98;10.43;;;0.90;99.90;;;;;;5085130;28;20363;-42
2022/03/01 05:52:37;;;;;;;19.13;10.93;;;0.90;99.90;;;;;;5091242;28;20044;-43
2022/03/01 05:55:06;;;;;;;19.05;11.63;;;0.90;99.90;;;;;;5088995;28;20434;-43
2022/03/01 05:57:32;;;;;;;19.67;11.20;;;0.90;99.90;;;;;;5088752;28;20044;-43
2022/03/01 05:59:59;;;;;;;19.63;11.13;;;0.90;99.90;;;;;;5071949;28;20097;-43
2022/03/01 06:02:25;;;;;;;18.58;10.82;;;0.90;99.90;;;;;;5089763;28;20055;-43
2022/03/01 06:04:52;;;;;;;21.55;12.48;;;0.80;99.90;;;;;;5077304;28;20470;-43
2022/03/01 06:07:19;;;;;;;17.98;10.93;;;0.90;99.90;;;;;;5065836;28;20210;-43
2022/03/01 06:09:45;;;;;;;21.50;10.63;;;0.80;99.90;;;;;;5090537;28;20036;-43
2022/03/01 06:12:10;;;;;;;19.13;10.95;;;0.80;99.90;;;;;;5101817;28;20111;-43
2022/03/01 06:14:36;;;;;;;17.27;9.98;;;0.90;99.90;;;;;;5053169;28;20617;-43
2022/03/01 06:17:03;;;;;;;19.05;10.85;;;0.90;99.90;;;;;;5086432;28;20036;-43
2022/03/01 06:19:29;;;;;;;18.58;10.88;;;0.90;99.90;;;;;;5061673;28;20123;-43
2022/03/01 06:21:57;;;;;;;19.95;11.73;;;0.90;99.90;;;;;;5069582;28;20050;-43
2022/03/01 06:24:23;;;;;;;22.17;11.75;;;0.90;99.90;;;;;;5070815;28;20059;-43
2022/03/01 06:26:49;;;;;;;18.40;10.88;;;1.00;99.90;;;;;;5085809;28;20374;-43
2022/03/01 06:29:15;;;;;;;22.00;11.33;;;1.00;99.90;;;;;;5079607;28;20643;-43
2022/03/01 06:31:41;;;;;;;19.52;10.75;;;1.00;99.90;;;;;;5043535;28;20052;-43
2022/03/01 06:34:07;;;;;;;19.50;11.00;;;1.10;99.90;;;;;;5092337;27;20044;-43
2022/03/01 06:36:33;;;;;;;20.80;12.10;;;1.10;99.90;;;;;;5069461;28;20075;-43
2022/03/01 06:38:59;;;;;;;21.48;11.25;;;1.10;99.90;;;;;;5063944;28;20069;-43
2022/03/01 06:41:25;;;;;;;20.52;12.85;;;1.10;99.90;;;;;;5084323;28;20048;-43
2022/03/01 06:43:52;;;;;;;19.65;11.20;;;1.10;99.90;;;;;;5087116;28;20036;-43
2022/03/01 06:46:20;;;;;;;18.80;11.68;;;1.20;99.90;;;;;;5070182;28;20351;-43
2022/03/01 06:48:46;;;;;;;20.85;12.45;;;1.50;99.90;;;;;;5080883;28;20089;-43
2022/03/01 06:51:13;;;;;;;18.48;10.90;;;1.20;99.90;;;;;;5069241;28;20044;-43
2022/03/01 06:53:40;;;;;;;25.25;12.60;;;1.20;99.90;;;;;;5065013;28;20040;-43
2022/03/01 06:56:07;;;;;;;23.13;12.80;;;1.20;99.90;;;;;;5084370;28;20371;-43
2022/03/01 06:58:33;;;;;;;19.48;11.52;;;1.30;99.90;;;;;;5069696;28;20036;-44
2022/03/01 07:01:02;;;;;;;20.58;11.82;;;1.30;99.90;;;;;;5032222;28;20052;-43
2022/03/01 07:03:28;;;;;;;21.50;11.15;;;1.30;99.90;;;;;;5064371;28;20052;-43
2022/03/01 07:05:56;;;;;;;22.50;11.93;;;1.40;99.90;;;;;;5062099;28;20746;-38
2022/03/01 07:08:24;;;;;;;18.38;11.88;;;1.40;99.90;;;;;;5032596;28;20041;-38
2022/03/01 07:10:50;;;;;;;21.85;12.57;;;1.50;99.90;;;;;;5063789;28;20055;-38
2022/03/01 07:13:16;;;;;;;20.88;12.40;;;1.50;99.90;;;;;;5065598;28;20037;-38
2022/03/01 07:15:43;;;;;;;19.95;11.63;;;1.60;99.90;;;;;;5067103;28;20090;-38
2022/03/01 07:18:09;;;;;;;22.80;12.10;;;1.60;99.90;;;;;;5047620;28;20076;-38
2022/03/01 07:20:35;;;;;;;19.98;12.40;;;1.70;99.90;;;;;;5067307;28;20068;-39
2022/03/01 07:23:02;;;;;;;21.20;11.02;;;1.80;99.90;;;;;;5067840;28;20040;-38
2022/03/01 07:25:28;;;;;;;21.27;10.95;;;1.80;99.90;;;;;;5070050;28;20412;-38
2022/03/01 07:27:55;;;;;;;20.23;12.07;;;1.90;99.90;;;;;;5049558;28;20044;-38
2022/03/01 07:30:24;;;;;;;19.85;11.75;;;2.00;99.90;;;;;;5068213;28;20482;-38
2022/03/01 07:32:54;;;;;;;18.42;12.15;;;2.10;99.90;;;;;;5044343;28;20044;-38
2022/03/01 07:35:21;;;;;;;20.90;11.68;;;2.20;99.90;;;;;;5069193;28;20047;-38
2022/03/01 07:37:47;;;;;;;19.85;12.35;;;2.20;99.90;;;;;;5065704;28;20036;-38
2022/03/01 07:40:15;;;;;;;18.52;11.77;;;2.40;99.90;;;;;;5068189;28;20461;-38
2022/03/01 07:42:42;;;;;;;19.35;11.80;;;2.30;99.90;;;;;;5064170;28;20048;-38
2022/03/01 07:45:08;;;;;;;20.55;11.45;;;2.40;99.90;;;;;;5065127;28;20067;-38
2022/03/01 07:47:35;;;;;;;20.08;11.73;;;2.50;99.90;;;;;;5067047;28;20051;-39
2022/03/01 07:50:02;;;;;;;20.58;12.23;;;2.60;99.90;;;;;;5050648;28;20178;-38
2022/03/01 07:52:27;;;;;;;23.17;12.10;;;2.60;99.90;;;;;;5065735;28;20545;-39
2022/03/01 07:54:54;;;;;;;21.85;11.55;;;2.70;99.90;;;;;;5064614;28;20066;-38
2022/03/01 07:57:20;;;;;;;20.17;11.70;;;2.70;99.90;;;;;;5067967;28;20049;-39
2022/03/01 07:59:47;;;;;;;18.80;11.80;;;2.80;99.90;;;;;;5063954;28;20155;-38
2022/03/01 08:02:13;;;;;;;18.05;10.80;;;2.80;99.90;;;;;;5038802;28;20318;-38
2022/03/01 08:04:41;;;;;;;21.98;11.88;;;2.90;99.90;;;;;;5063660;28;20095;-38
2022/03/01 08:07:11;;;;;;;20.02;12.15;;;3.00;99.90;;;;;;5075749;28;20047;-38
2022/03/01 08:09:39;;;;;;;18.63;11.20;;;3.00;99.90;;;;;;5064974;28;20067;-39
2022/03/01 08:12:07;;;;;;;21.30;11.77;;;3.10;99.90;;;;;;5063512;28;20052;-38
2022/03/01 08:14:34;;;;;;;16.20;10.70;;;3.10;99.90;;;;;;5065965;28;20098;-39
2022/03/01 08:17:00;;;;;;;19.80;11.40;;;3.10;99.90;;;;;;5062835;28;20055;-39
2022/03/01 08:19:28;;;;;;;20.75;11.68;;;3.20;99.90;;;;;;5068854;28;20040;-38
2022/03/01 08:21:55;;;;;;;20.00;11.32;;;3.30;99.90;;;;;;5065193;28;20556;-38
2022/03/01 08:24:20;;;;;;;21.35;12.30;;;3.30;99.90;;;;;;5067105;28;20052;-38
2022/03/01 08:26:48;;;;;;;19.23;11.35;;;3.40;99.90;;;;;;5065532;28;20036;-39
2022/03/01 08:29:14;;;;;;;20.98;12.27;;;3.40;99.90;;;;;;5065530;28;20060;-39
2022/03/01 08:31:41;;;;;;;20.55;11.35;;;3.50;99.90;;;;;;5066053;28;20307;-38
2022/03/01 08:34:07;;;;;;;19.08;11.30;;;3.50;99.90;;;;;;5062616;28;20040;-39
2022/03/01 08:36:34;;;;;;;18.10;10.63;;;3.50;99.90;;;;;;5066063;28;20112;-39
2022/03/01 08:39:00;;;;;;;17.77;12.17;;;3.60;99.90;;;;;;5062073;28;20050;-39
2022/03/01 08:41:26;;;;;;;17.80;11.75;;;3.60;99.90;;;;;;5049517;28;20040;-39
2022/03/01 08:43:52;;;;;;;20.13;11.93;;;3.70;99.90;;;;;;5061540;28;20056;-39
2022/03/01 08:46:19;;;;;;;18.98;11.50;;;3.80;99.90;;;;;;5065296;28;20074;-39
2022/03/01 08:48:45;;;;;;;24.10;13.10;;;3.80;99.90;;;;;;5047971;28;20044;-39
2022/03/01 08:51:12;;;;;;;21.80;12.68;;;3.90;99.90;;;;;;5080754;28;20055;-39
2022/03/01 08:53:38;;;;;;;15.83;10.73;;;4.00;99.90;;;;;;5065200;28;20054;-39
2022/03/01 08:56:05;;;;;;;21.63;11.52;;;4.20;99.90;;;;;;5065212;28;20463;-39
2022/03/01 08:58:32;;;;;;;19.05;12.32;;;4.30;99.90;;;;;;5044540;28;20049;-39
2022/03/01 09:00:57;;;;;;;17.65;11.15;;;4.40;99.90;;;;;;5060817;28;20028;-39
2022/03/01 09:03:26;;;;;;;17.77;10.65;;;4.50;99.90;;;;;;5086835;28;20403;-39
2022/03/01 09:05:53;;;;;;;18.45;11.65;;;4.70;99.90;;;;;;5064963;28;20120;-39
2022/03/01 09:08:18;;;;;;;19.38;11.70;;;4.80;99.90;;;;;;5100331;28;20119;-39
2022/03/01 09:10:45;;;;;;;19.77;12.35;;;4.90;99.90;;;;;;5084211;28;20178;-39
2022/03/01 09:13:11;;;;;;;19.23;11.60;;;5.10;99.90;;;;;;5084255;28;20061;-39
2022/03/01 09:15:37;;;;;;;20.10;11.63;;;5.20;99.90;;;;;;5081673;28;20053;-39
2022/03/01 09:18:05;;;;;;;17.20;11.25;;;5.40;99.90;;;;;;5086519;28;20040;-39
2022/03/01 09:20:33;;;;;;;19.08;11.60;;;5.60;99.90;;;;;;5097513;28;20044;-40
2022/03/01 09:22:59;;;;;;;19.98;12.32;;;5.80;99.90;;;;;;5066354;28;20105;-39
2022/03/01 09:25:26;;;;;;;20.45;12.40;;;6.00;99.90;;;;;;5068408;28;20418;-39
2022/03/01 09:27:51;;;;;;;19.20;11.95;;;6.10;99.90;;;;;;5056465;28;20047;-39
2022/03/01 09:30:19;;;;;;;17.80;11.85;;;6.20;99.90;;;;;;5068011;28;20035;-40
2022/03/01 09:32:46;;;;;;;20.85;12.00;;;6.30;99.90;;;;;;5083872;28;20378;-40
2022/03/01 09:35:12;;;;;;;18.63;12.60;;;6.30;99.90;;;;;;5051806;28;20036;-40
2022/03/01 09:37:39;;;;;;;16.63;11.03;;;6.30;99.90;;;;;;5084545;28;20076;-40
2022/03/01 09:40:06;;;;;;;16.23;10.80;;;6.40;99.90;;;;;;5068471;28;20862;-40
2022/03/01 09:42:33;;;;;;;18.88;11.63;;;6.40;99.90;;;;;;5068529;28;20044;-40
2022/03/01 09:44:59;;;;;;;17.30;11.07;;;6.40;99.90;;;;;;5086859;28;20189;-40
2022/03/01 09:47:26;;;;;;;20.00;11.00;;;6.40;99.90;;;;;;5066820;28;20043;-41
2022/03/01 09:49:52;;;;;;;15.57;10.70;;;6.40;99.90;;;;;;5091855;28;20040;-40
2022/03/01 09:52:19;;;;;;;18.70;11.30;;;6.40;99.90;;;;;;5080840;28;20052;-40
2022/03/01 09:54:48;;;;;;;16.75;11.02;;;6.40;99.90;;;;;;5099521;28;20507;-40
2022/03/01 09:57:15;;;;;;;15.52;10.57;;;6.30;99.90;;;;;;5067970;28;20055;-40
2022/03/01 09:59:42;;;;;;;19.00;11.45;;;6.30;99.90;;;;;;5083674;28;20036;-39
2022/03/01 10:02:08;;;;;;;17.90;11.10;;;6.30;99.90;;;;;;5041814;28;20056;-40
2022/03/01 10:04:38;;;;;;;19.33;11.23;;;6.30;99.90;;;;;;5073432;28;20059;-40
2022/03/01 10:07:10;;;;;;;17.52;10.90;;;6.30;99.90;;;;;;5045497;28;20045;-40
2022/03/01 10:09:41;;;;;;;19.75;11.10;;;6.40;99.90;;;;;;5025983;28;20040;-40
2022/03/01 10:12:07;;;;;;;18.20;11.88;;;6.50;99.90;;;;;;5044857;28;20498;-40
2022/03/01 10:14:34;;;;;;;21.02;11.77;;;6.60;99.90;;;;;;5001567;28;20053;-40
2022/03/01 10:17:11;;;;;;;18.58;11.23;;;6.80;99.90;;;;;;5012586;28;20080;-40
2022/03/01 10:19:37;;;;;;;19.08;12.25;;;7.00;99.90;;;;;;5026712;28;20037;-40
2022/03/01 10:22:04;;;;;;;17.98;11.05;;;7.10;99.90;;;;;;5041657;28;20083;-40
2022/03/01 10:24:31;;;;;;;16.65;11.00;;;7.30;99.90;;;;;;5029780;28;20055;-40
2022/03/01 10:27:01;;;;;;;18.73;11.55;;;7.50;99.90;;;;;;5046331;28;20041;-41
2022/03/01 10:29:28;;;;;;;15.63;10.13;;;7.70;99.90;;;;;;5030445;28;20102;-41
2022/03/01 10:31:59;;;;;;;16.02;11.57;;;7.90;99.90;;;;;;5031999;28;20132;-41
2022/03/01 10:34:27;;;;;;;18.48;12.20;;;8.20;99.90;;;;;;5029942;28;20067;-41
2022/03/01 10:36:53;;;;;;;16.23;11.75;;;8.40;99.90;;;;;;5043480;28;20049;-41
2022/03/01 10:39:27;;;;;;;16.63;11.77;;;8.60;99.90;;;;;;5031347;28;20406;-41
2022/03/01 10:41:54;;;;;;;18.05;11.45;;;8.90;99.90;;;;;;5031354;28;20501;-41
2022/03/01 10:44:22;;;;;;;14.93;10.95;;;9.10;99.90;;;;;;5013409;28;20064;-41
2022/03/01 10:46:57;;;;;;;14.82;10.98;;;9.40;99.90;;;;;;5048323;28;20487;-41
2022/03/01 10:49:28;;;;;;;14.95;10.55;;;9.60;99.90;;;;;;5055721;28;20530;-41
2022/03/01 10:52:02;;;;;;;17.42;11.85;;;9.70;99.90;;;;;;5064095;28;20049;-41
2022/03/01 10:54:44;;;;;;;16.83;10.93;;;9.80;99.90;;;;;;5044776;28;20276;-41
2022/03/01 10:57:22;;;;;;;16.85;11.38;;;9.90;99.90;;;;;;5050455;28;20068;-41
2022/03/01 10:59:50;;;;;;;;;;;10.00;99.90;;;;;;5045574;28;20383;-41
2022/03/01 11:02:17;;;;;;;16.52;11.07;;;10.00;99.90;;;;;;5022036;28;19921;-41
2022/03/01 11:04:46;;;;;;;16.90;11.88;;;10.00;99.90;;;;;;5063450;28;20044;-41
2022/03/01 11:07:13;;;;;;;15.52;11.27;;;9.90;99.90;;;;;;5066559;28;21070;-41
2022/03/01 11:09:40;;;;;;;16.13;11.32;;;9.90;99.90;;;;;;5051300;28;20048;-41
2022/03/01 11:12:08;;;;;;;16.48;11.43;;;9.80;99.90;;;;;;5048943;28;20097;-41
2022/03/01 11:14:39;;;;;;;17.02;11.45;;;9.70;99.90;;;;;;5073640;28;20044;-41
2022/03/01 11:17:50;;;;;;;18.23;11.80;;;9.60;99.90;;;;;;5040187;28;20123;-41
2022/03/01 11:20:24;;;;;;;19.15;11.30;;;9.40;99.90;;;;;;5048484;28;20048;-41
2022/03/01 11:22:57;;;;;;;17.02;11.20;;;9.30;99.90;;;;;;5088477;28;20509;-41
2022/03/01 11:25:27;;;;;;;17.35;11.05;;;9.20;99.90;;;;;;5069124;28;20101;-41
2022/03/01 11:28:03;;;;;;;19.25;12.48;;;9.20;99.90;;;;;;5089675;28;20040;-41
2022/03/01 11:30:34;;;;;;;16.75;11.77;;;9.10;99.90;;;;;;5053260;28;20048;-41
2022/03/01 11:33:00;;;;;;;17.05;12.73;;;9.10;99.90;;;;;;5088527;28;20430;-41
2022/03/01 11:35:29;;;;;;;17.02;11.50;;;9.10;99.90;;;;;;5070933;28;20059;-41
2022/03/01 11:38:07;;;;;;;17.60;12.27;;;9.00;99.90;;;;;;5077719;28;20462;-41
2022/03/01 11:40:36;;;;;;;16.33;11.73;;;9.00;99.90;;;;;;5086046;28;20369;-41
2022/03/01 11:43:10;;;;;;;15.15;10.93;;;9.10;99.90;;;;;;5086841;28;23677;-41
2022/03/01 11:45:36;;;;;;;20.58;11.68;;;9.10;99.90;;;;;;5082407;28;20504;-41
2022/03/01 11:48:05;;;;;;;17.45;11.48;;;9.10;99.90;;;;;;5080131;28;20509;-41
2022/03/01 11:50:31;;;;;;;17.70;12.00;;;9.10;99.90;;;;;;5088599;28;20040;-41
2022/03/01 11:53:06;;;;;;;17.83;12.23;;;9.10;99.90;;;;;;5083818;28;20485;-41
2022/03/01 11:55:45;;;;;;;15.70;11.23;;;9.10;99.90;;;;;;5069304;28;20043;-41
2022/03/01 11:58:12;;;;;;;18.42;12.23;;;9.20;99.90;;;;;;5067829;28;20078;-41
2022/03/01 12:00:40;;;;;;;18.15;12.05;;;9.30;99.90;;;;;;5068208;28;20044;-41
2022/03/01 12:03:11;;;;;;;18.60;11.73;;;9.30;99.90;;;;;;5066141;28;20109;-40
2022/03/01 12:05:40;;;;;;;18.92;11.70;;;9.30;99.90;;;;;;5050336;28;20047;-41
2022/03/01 12:08:11;;;;;;;19.40;11.73;;;9.30;99.90;;;;;;5082520;28;20035;-41
2022/03/01 12:10:38;;;;;;;18.92;11.75;;;9.30;99.90;;;;;;5072888;28;20105;-41
2022/03/01 12:13:07;;;;;;;16.08;11.25;;;9.20;99.90;;;;;;5088822;28;20040;-41
2022/03/01 12:15:35;;;;;;;18.17;11.90;;;9.10;99.90;;;;;;5068672;28;20061;-41
2022/03/01 12:18:13;;;;;;;17.00;11.75;;;9.20;99.90;;;;;;5052577;28;20044;-41
2022/03/01 12:20:41;;;;;;;17.58;12.02;;;9.00;99.90;;;;;;5083478;28;20047;-41
2022/03/01 12:23:08;;;;;;;16.55;11.00;;;9.00;99.90;;;;;;5066715;28;20567;-41
2022/03/01 12:25:38;;;;;;;18.40;11.45;;;8.90;99.90;;;;;;5088384;28;20111;-41
2022/03/01 12:28:06;;;;;;;18.75;11.55;;;8.90;99.90;;;;;;5083661;28;20040;-41
2022/03/01 12:30:39;;;;;;;16.88;11.82;;;8.80;99.90;;;;;;5087350;28;20071;-41
2022/03/01 12:33:11;;;;;;;16.75;11.27;;;8.80;99.90;;;;;;5065692;28;20074;-41
2022/03/01 12:35:39;;;;;;;21.00;12.43;;;8.80;99.90;;;;;;5070537;28;20424;-41
2022/03/01 12:38:08;;;;;;;22.88;12.82;;;8.80;99.90;;;;;;5067739;28;20047;-41
2022/03/01 12:40:35;;;;;;;18.40;12.52;;;8.70;99.90;;;;;;5087343;28;20043;-41